Time;durP1;ratioP1;P1;durP2;ratioP2;P2;SDS_P1;SDS_P2;PMS_P1;PMS_P2;Temp;Humidity;BMP_temperature;BMP_pressure;BME280_temperature;BME280_humidity;BME280_pressure;Samples;Min_cycle;Max_cycle;Signal;HPM_P1;HPM_P2
2021/05/19 00:01:56;;;;;;;6.83;6.33;;;;;;;;;;5013752;28;20198;-45
2021/05/19 00:04:21;;;;;;;6.20;5.70;;;;;;;;;;4999890;28;21011;-45
2021/05/19 00:06:46;;;;;;;7.57;6.80;;;;;;;;;;4997687;28;20649;-45
2021/05/19 00:09:12;;;;;;;6.40;5.90;;;;;;;;;;4992092;28;20177;-45
2021/05/19 00:11:38;;;;;;;6.70;6.20;;;;;;;;;;5004839;28;20398;-45
2021/05/19 00:14:04;;;;;;;6.43;6.03;;;;;;;;;;5003646;28;20595;-45
2021/05/19 00:16:29;;;;;;;7.20;6.50;;;;;;;;;;5004990;28;20272;-45
2021/05/19 00:18:54;;;;;;;6.13;5.73;;;;;;;;;;4998263;28;20677;-46
2021/05/19 00:21:20;;;;;;;6.00;5.60;;;;;;;;;;5002230;28;20181;-46
2021/05/19 00:23:45;;;;;;;6.37;5.97;;;;;;;;;;5002526;28;20179;-45
2021/05/19 00:26:10;;;;;;;5.80;5.40;;;;;;;;;;4992394;28;20214;-45
2021/05/19 00:28:35;;;;;;;6.53;6.03;;;;;;;;;;5002492;28;20653;-46
2021/05/19 00:31:04;;;;;;;6.30;5.80;;;;;;;;;;5005140;28;20172;-45
2021/05/19 00:33:29;;;;;;;6.43;6.03;;;;;;;;;;5006391;28;20192;-45
2021/05/19 00:35:54;;;;;;;6.80;6.30;;;;;;;;;;5005486;28;20606;-45
2021/05/19 00:38:20;;;;;;;6.93;6.32;;;;;;;;;;4999238;28;20847;-45
2021/05/19 00:40:46;;;;;;;6.40;5.90;;;;;;;;;;4992234;28;20202;-45
2021/05/19 00:43:11;;;;;;;6.40;5.80;;;;;;;;;;5004766;28;20194;-45
2021/05/19 00:45:37;;;;;;;6.23;5.73;;;;;;;;;;5006933;28;20607;-46
2021/05/19 00:48:02;;;;;;;5.90;5.40;;;;;;;;;;4996866;28;20202;-46
2021/05/19 00:50:29;;;;;;;5.83;5.43;;;;;;;;;;5006159;28;20244;-47
2021/05/19 00:52:54;;;;;;;6.40;5.90;;;;;;;;;;5003648;28;20191;-46
2021/05/19 00:55:19;;;;;;;6.40;5.90;;;;;;;;;;5001856;28;20595;-46
2021/05/19 00:57:45;;;;;;;6.07;5.67;;;;;;;;;;5006008;28;20272;-45
2021/05/19 01:00:12;;;;;;;6.37;5.87;;;;;;;;;;4991520;28;20677;-45
2021/05/19 01:02:37;;;;;;;5.87;5.37;;;;;;;;;;5001443;28;20251;-45
2021/05/19 01:05:07;;;;;;;5.80;5.40;;;;;;;;;;5001149;28;20596;-45
2021/05/19 01:07:35;;;;;;;5.80;5.40;;;;;;;;;;5002544;28;20183;-45
2021/05/19 01:10:00;;;;;;;5.00;4.60;;;;;;;;;;5004762;28;20976;-46
2021/05/19 01:12:25;;;;;;;5.90;5.50;;;;;;;;;;5005988;28;20664;-45
2021/05/19 01:14:51;;;;;;;5.22;4.82;;;;;;;;;;5008083;28;20694;-45
2021/05/19 01:17:17;;;;;;;5.40;5.00;;;;;;;;;;5003214;28;20170;-45
2021/05/19 01:19:43;;;;;;;5.47;5.07;;;;;;;;;;5001177;28;20638;-44
2021/05/19 01:22:12;;;;;;;5.47;5.17;;;;;;;;;;5000123;28;20173;-44
2021/05/19 01:24:39;;;;;;;4.90;4.50;;;;;;;;;;5004017;28;20603;-44
2021/05/19 01:27:05;;;;;;;5.27;4.77;;;;;;;;;;5001929;28;20601;-44
2021/05/19 01:29:30;;;;;;;5.27;4.87;;;;;;;;;;5004127;28;20617;-44
2021/05/19 01:31:55;;;;;;;6.50;5.43;;;;;;;;;;5010033;28;20956;-46
2021/05/19 01:34:20;;;;;;;5.17;4.87;;;;;;;;;;5008064;28;20271;-45
2021/05/19 01:36:46;;;;;;;5.73;5.33;;;;;;;;;;5005422;28;20194;-44
2021/05/19 01:39:12;;;;;;;5.40;4.93;;;;;;;;;;5011045;28;20246;-45
2021/05/19 01:41:37;;;;;;;5.40;5.00;;;;;;;;;;5008423;28;20542;-45
2021/05/19 01:44:09;;;;;;;5.27;4.87;;;;;;;;;;5006889;28;20601;-45
2021/05/19 01:46:34;;;;;;;5.50;5.10;;;;;;;;;;5003901;28;20205;-44
2021/05/19 01:49:01;;;;;;;5.63;5.13;;;;;;;;;;5005043;28;20635;-44
2021/05/19 01:51:27;;;;;;;5.37;4.97;;;;;;;;;;5007682;28;20183;-45
2021/05/19 01:53:52;;;;;;;5.60;5.20;;;;;;;;;;5001640;28;20605;-45
2021/05/19 01:56:17;;;;;;;5.97;5.50;;;;;;;;;;5003318;28;20952;-45
2021/05/19 01:58:42;;;;;;;5.80;5.40;;;;;;;;;;5004746;28;20469;-45
2021/05/19 02:01:07;;;;;;;5.15;4.82;;;;;;;;;;5024354;28;20180;-45
2021/05/19 02:03:33;;;;;;;5.50;5.10;;;;;;;;;;5003769;28;20201;-45
2021/05/19 02:05:58;;;;;;;5.33;4.93;;;;;;;;;;4996322;28;20179;-45
2021/05/19 02:08:23;;;;;;;5.07;4.77;;;;;;;;;;5010039;28;20180;-45
2021/05/19 02:10:48;;;;;;;5.18;4.78;;;;;;;;;;4997043;28;20227;-44
2021/05/19 02:13:16;;;;;;;5.73;5.23;;;;;;;;;;5004854;28;20721;-44
2021/05/19 02:15:41;;;;;;;5.67;5.20;;;;;;;;;;5006923;28;20179;-44
2021/05/19 02:18:06;;;;;;;5.10;4.80;;;;;;;;;;5008287;28;20700;-44
2021/05/19 02:20:31;;;;;;;4.60;4.30;;;;;;;;;;5002806;28;20274;-44
2021/05/19 02:22:57;;;;;;;5.33;4.93;;;;;;;;;;4995252;28;20172;-47
2021/05/19 02:25:22;;;;;;;5.18;4.78;;;;;;;;;;5004806;28;20635;-44
2021/05/19 02:27:49;;;;;;;5.00;4.70;;;;;;;;;;5007302;28;20208;-44
2021/05/19 02:30:15;;;;;;;4.40;4.10;;;;;;;;;;4994132;28;20603;-44
2021/05/19 02:32:40;;;;;;;5.00;4.70;;;;;;;;;;5008346;28;20609;-45
2021/05/19 02:35:07;;;;;;;5.33;4.93;;;;;;;;;;5000501;28;21156;-44
2021/05/19 02:37:32;;;;;;;5.00;4.60;;;;;;;;;;5003893;28;20188;-45
2021/05/19 02:39:57;;;;;;;5.10;4.80;;;;;;;;;;5007090;28;20654;-45
2021/05/19 02:42:22;;;;;;;4.87;4.57;;;;;;;;;;5008081;28;20233;-44
2021/05/19 02:44:47;;;;;;;5.47;4.97;;;;;;;;;;4997020;28;20172;-44
2021/05/19 02:47:12;;;;;;;5.33;4.90;;;;;;;;;;4999013;28;20232;-44
2021/05/19 02:49:38;;;;;;;4.87;4.57;;;;;;;;;;5005282;28;20187;-45
2021/05/19 02:52:03;;;;;;;5.82;5.40;;;;;;;;;;4996113;28;20175;-44
2021/05/19 02:54:28;;;;;;;5.60;5.10;;;;;;;;;;4994978;28;20187;-45
2021/05/19 02:56:53;;;;;;;5.35;4.95;;;;;;;;;;4999534;28;20186;-45
2021/05/19 02:59:18;;;;;;;5.50;5.10;;;;;;;;;;5006085;28;20282;-45
2021/05/19 03:01:44;;;;;;;6.30;5.80;;;;;;;;;;5003773;28;20169;-45
2021/05/19 03:04:15;;;;;;;4.70;4.40;;;;;;;;;;4997491;28;20174;-45
2021/05/19 03:06:40;;;;;;;5.27;4.80;;;;;;;;;;5002297;28;20171;-45
2021/05/19 03:09:06;;;;;;;5.00;4.57;;;;;;;;;;5007788;28;20610;-44
2021/05/19 03:11:32;;;;;;;5.37;4.87;;;;;;;;;;5007722;28;20715;-45
2021/05/19 03:13:57;;;;;;;5.00;4.50;;;;;;;;;;5000178;28;20190;-45
2021/05/19 03:16:22;;;;;;;4.77;4.47;;;;;;;;;;5002757;28;20182;-45
2021/05/19 03:18:47;;;;;;;4.80;4.40;;;;;;;;;;5003142;28;20207;-45
2021/05/19 03:21:13;;;;;;;5.20;4.80;;;;;;;;;;5003607;28;20178;-45
2021/05/19 03:23:38;;;;;;;5.30;4.80;;;;;;;;;;5004134;28;20648;-45
2021/05/19 03:26:03;;;;;;;4.68;4.32;;;;;;;;;;5008009;28;20166;-44
2021/05/19 03:28:28;;;;;;;5.20;4.80;;;;;;;;;;5002544;28;20264;-45
2021/05/19 03:30:53;;;;;;;4.80;4.50;;;;;;;;;;5005855;28;20197;-45
2021/05/19 03:33:19;;;;;;;5.00;4.60;;;;;;;;;;4996406;28;20545;-45
2021/05/19 03:35:44;;;;;;;5.60;4.50;;;;;;;;;;4992361;28;20184;-45
2021/05/19 03:38:10;;;;;;;4.90;4.50;;;;;;;;;;5006016;28;20188;-45
2021/05/19 03:40:35;;;;;;;4.80;4.50;;;;;;;;;;5007403;28;20269;-45
2021/05/19 03:43:01;;;;;;;4.93;4.60;;;;;;;;;;5004944;28;20191;-44
2021/05/19 03:45:26;;;;;;;5.73;5.33;;;;;;;;;;5001853;28;20183;-45
2021/05/19 03:47:53;;;;;;;5.20;4.90;;;;;;;;;;4996864;28;20963;-46
2021/05/19 03:50:24;;;;;;;5.40;5.00;;;;;;;;;;5004972;28;20175;-45
2021/05/19 03:52:50;;;;;;;5.47;5.07;;;;;;;;;;5005937;28;21302;-45
2021/05/19 03:55:15;;;;;;;5.80;5.40;;;;;;;;;;5003836;28;20592;-46
2021/05/19 03:57:40;;;;;;;6.00;5.50;;;;;;;;;;5003892;28;20183;-45
2021/05/19 04:00:07;;;;;;;5.60;5.20;;;;;;;;;;5002940;28;20261;-45
2021/05/19 04:02:32;;;;;;;5.13;4.73;;;;;;;;;;5006553;28;20205;-44
2021/05/19 04:04:58;;;;;;;4.50;4.10;;;;;;;;;;5004056;28;20965;-45
2021/05/19 04:07:23;;;;;;;5.40;4.90;;;;;;;;;;5004012;28;20680;-44
2021/05/19 04:09:48;;;;;;;5.10;4.70;;;;;;;;;;5007556;28;20805;-44
2021/05/19 04:12:13;;;;;;;4.43;4.13;;;;;;;;;;4992604;28;20227;-44
2021/05/19 04:14:38;;;;;;;6.30;4.40;;;;;;;;;;5000361;28;20697;-44
2021/05/19 04:17:03;;;;;;;4.90;4.50;;;;;;;;;;5007366;28;20187;-45
2021/05/19 04:19:29;;;;;;;4.50;4.20;;;;;;;;;;5004992;28;20577;-46
2021/05/19 04:21:54;;;;;;;5.30;4.90;;;;;;;;;;5006320;28;20184;-45
2021/05/19 04:24:19;;;;;;;5.22;4.78;;;;;;;;;;4993869;28;20183;-45
2021/05/19 04:26:44;;;;;;;6.97;5.30;;;;;;;;;;5001142;28;20653;-45
2021/05/19 04:29:09;;;;;;;5.95;5.35;;;;;;;;;;5003304;28;20636;-45
2021/05/19 04:31:34;;;;;;;5.90;5.40;;;;;;;;;;5006128;28;20183;-45
2021/05/19 04:34:00;;;;;;;6.20;5.70;;;;;;;;;;4994407;28;20193;-45
2021/05/19 04:36:25;;;;;;;5.93;5.30;;;;;;;;;;4991287;28;20185;-45
2021/05/19 04:38:50;;;;;;;6.07;5.57;;;;;;;;;;4998088;28;20204;-46
2021/05/19 04:41:15;;;;;;;6.40;5.90;;;;;;;;;;4986367;28;20171;-45
2021/05/19 04:43:42;;;;;;;6.33;5.73;;;;;;;;;;5004385;28;20189;-48
2021/05/19 04:46:08;;;;;;;8.63;7.73;;;;;;;;;;5002488;28;20195;-46
2021/05/19 04:48:33;;;;;;;8.60;7.77;;;;;;;;;;4998422;28;20595;-44
2021/05/19 04:50:58;;;;;;;8.93;8.13;;;;;;;;;;5006102;28;20179;-45
2021/05/19 04:53:23;;;;;;;9.60;8.80;;;;;;;;;;5004681;28;20180;-44
2021/05/19 04:55:48;;;;;;;8.53;7.73;;;;;;;;;;5002757;28;20246;-44
2021/05/19 04:58:14;;;;;;;8.98;8.07;;;;;;;;;;4997043;28;20176;-45
2021/05/19 05:00:39;;;;;;;9.67;7.10;;;;;;;;;;5007362;28;20213;-45
2021/05/19 05:03:05;;;;;;;7.17;6.57;;;;;;;;;;5001340;28;20177;-45
2021/05/19 05:05:30;;;;;;;9.23;6.60;;;;;;;;;;5001716;28;20672;-45
2021/05/19 05:07:55;;;;;;;7.33;6.73;;;;;;;;;;4999608;28;20622;-45
2021/05/19 05:10:21;;;;;;;7.03;6.40;;;;;;;;;;4996920;28;20212;-44
2021/05/19 05:12:47;;;;;;;7.53;6.93;;;;;;;;;;5005447;28;20185;-45
2021/05/19 05:15:14;;;;;;;7.33;6.70;;;;;;;;;;5003513;28;20192;-46
2021/05/19 05:17:40;;;;;;;8.20;7.33;;;;;;;;;;5005579;28;20584;-45
2021/05/19 05:20:06;;;;;;;8.20;7.50;;;;;;;;;;5004066;28;20634;-45
2021/05/19 05:22:31;;;;;;;7.50;6.90;;;;;;;;;;5000633;28;20176;-46
2021/05/19 05:24:56;;;;;;;7.85;7.22;;;;;;;;;;5008424;28;20598;-46
2021/05/19 05:27:21;;;;;;;8.38;7.78;;;;;;;;;;5008236;28;20267;-45
2021/05/19 05:29:46;;;;;;;9.13;8.40;;;;;;;;;;5001264;28;20188;-45
2021/05/19 05:32:12;;;;;;;8.30;7.60;;;;;;;;;;5009297;28;20593;-45
2021/05/19 05:34:37;;;;;;;9.33;8.43;;;;;;;;;;4993972;28;20202;-46
2021/05/19 05:37:04;;;;;;;9.40;8.50;;;;;;;;;;5002570;28;20197;-46
2021/05/19 05:39:29;;;;;;;8.43;7.73;;;;;;;;;;4994914;28;20212;-46
2021/05/19 05:41:55;;;;;;;9.60;8.70;;;;;;;;;;4989807;28;20612;-44
2021/05/19 05:44:21;;;;;;;10.43;9.63;;;;;;;;;;4986838;28;20312;-44
2021/05/19 05:46:46;;;;;;;10.43;9.53;;;;;;;;;;5001781;28;20535;-45
2021/05/19 05:49:11;;;;;;;10.98;10.07;;;;;;;;;;4997005;28;21025;-45
2021/05/19 05:51:37;;;;;;;11.75;10.75;;;;;;;;;;4999774;28;20637;-46
2021/05/19 05:54:02;;;;;;;10.50;9.50;;;;;;;;;;5008329;28;20183;-44
2021/05/19 05:56:27;;;;;;;10.60;9.63;;;;;;;;;;5004877;28;20194;-45
2021/05/19 05:58:52;;;;;;;10.80;9.80;;;;;;;;;;5005423;28;20192;-45
2021/05/19 06:01:17;;;;;;;10.63;9.63;;;;;;;;;;5005595;28;20531;-44
2021/05/19 06:03:43;;;;;;;9.50;8.60;;;;;;;;;;4993448;28;20317;-44
2021/05/19 06:06:09;;;;;;;10.02;9.23;;;;;;;;;;5004426;28;20193;-45
2021/05/19 06:08:34;;;;;;;9.23;8.43;;;;;;;;;;5003103;28;20552;-45
2021/05/19 06:10:59;;;;;;;9.63;8.83;;;;;;;;;;4983980;28;20650;-44
2021/05/19 06:13:24;;;;;;;10.70;9.80;;;;;;;;;;4995746;28;20209;-45
2021/05/19 06:15:50;;;;;;;9.23;8.43;;;;;;;;;;5001592;28;20205;-44
2021/05/19 06:18:15;;;;;;;9.40;8.60;;;;;;;;;;5004187;28;20304;-44
2021/05/19 06:20:40;;;;;;;8.90;8.20;;;;;;;;;;5007216;28;20194;-45
2021/05/19 06:23:05;;;;;;;10.73;9.73;;;;;;;;;;5003186;28;20781;-44
2021/05/19 06:25:30;;;;;;;9.77;8.87;;;;;;;;;;5006179;28;20263;-46
2021/05/19 06:27:56;;;;;;;9.70;8.90;;;;;;;;;;5006674;28;20711;-46
2021/05/19 06:30:21;;;;;;;8.97;8.30;;;;;;;;;;5005674;28;20606;-45
2021/05/19 06:32:46;;;;;;;9.27;8.47;;;;;;;;;;5004189;28;20184;-45
2021/05/19 06:35:11;;;;;;;9.57;8.80;;;;;;;;;;4987174;28;20277;-45
2021/05/19 06:37:37;;;;;;;10.27;9.33;;;;;;;;;;4996921;28;20201;-45
2021/05/19 06:40:04;;;;;;;10.60;9.50;;;;;;;;;;4987202;28;20597;-45
2021/05/19 06:42:29;;;;;;;10.10;9.10;;;;;;;;;;5005325;28;20938;-45
2021/05/19 06:44:54;;;;;;;11.10;10.13;;;;;;;;;;5005306;28;20592;-46
2021/05/19 06:47:19;;;;;;;11.10;10.07;;;;;;;;;;5001987;28;20239;-45
2021/05/19 06:49:45;;;;;;;10.97;9.97;;;;;;;;;;5004399;28;20189;-43
2021/05/19 06:52:10;;;;;;;10.70;9.60;;;;;;;;;;5000476;28;20734;-46
2021/05/19 06:54:35;;;;;;;10.60;9.60;;;;;;;;;;5002984;28;20272;-46
2021/05/19 06:57:00;;;;;;;11.65;10.57;;;;;;;;;;5005222;28;20178;-46
2021/05/19 06:59:25;;;;;;;10.13;9.32;;;;;;;;;;5006242;28;20213;-47
2021/05/19 07:01:50;;;;;;;10.85;9.90;;;;;;;;;;5002185;28;20628;-47
2021/05/19 07:04:17;;;;;;;12.27;11.20;;;;;;;;;;5004306;28;20175;-48
2021/05/19 07:06:43;;;;;;;12.07;10.30;;;;;;;;;;5001145;28;20752;-48
2021/05/19 07:09:08;;;;;;;10.97;10.07;;;;;;;;;;5000819;28;20777;-46
2021/05/19 07:11:33;;;;;;;11.65;10.65;;;;;;;;;;4998331;28;20763;-45
2021/05/19 07:14:00;;;;;;;11.83;10.77;;;;;;;;;;4997427;28;20554;-45
2021/05/19 07:16:26;;;;;;;10.93;10.03;;;;;;;;;;4991609;28;20293;-45
2021/05/19 07:18:53;;;;;;;11.60;10.60;;;;;;;;;;4992084;28;21042;-46
2021/05/19 07:21:19;;;;;;;11.53;10.53;;;;;;;;;;5008277;28;20971;-44
2021/05/19 07:23:44;;;;;;;10.00;9.17;;;;;;;;;;5000114;28;20609;-45
2021/05/19 07:26:09;;;;;;;8.53;7.83;;;;;;;;;;4988489;28;20253;-45
2021/05/19 07:28:34;;;;;;;8.13;7.33;;;;;;;;;;5000706;28;20189;-45
2021/05/19 07:30:59;;;;;;;6.63;6.03;;;;;;;;;;5008068;28;20185;-45
2021/05/19 07:33:25;;;;;;;5.37;4.97;;;;;;;;;;4998503;28;20185;-46
2021/05/19 07:35:50;;;;;;;4.80;4.40;;;;;;;;;;5004970;28;20879;-46
2021/05/19 07:38:15;;;;;;;5.17;4.77;;;;;;;;;;4997672;28;20189;-48
2021/05/19 07:40:40;;;;;;;4.60;4.30;;;;;;;;;;4989384;28;20557;-45
2021/05/19 07:43:06;;;;;;;4.80;4.50;;;;;;;;;;4988470;28;20179;-46
2021/05/19 07:45:31;;;;;;;6.10;5.70;;;;;;;;;;4994262;28;20209;-46
2021/05/19 07:47:56;;;;;;;7.73;7.10;;;;;;;;;;5006708;28;20709;-46
2021/05/19 07:50:22;;;;;;;6.67;6.17;;;;;;;;;;5004313;28;20655;-47
2021/05/19 07:52:47;;;;;;;6.77;6.17;;;;;;;;;;5002560;28;20182;-45
2021/05/19 07:55:31;;;;;;;7.90;7.23;;;;;;;;;;5000551;28;20545;-45
2021/05/19 08:00:40;;;;;;;8.05;7.35;;;;;;;;;;5006095;28;20647;-46
2021/05/19 08:03:05;;;;;;;7.70;7.10;;;;;;;;;;5006092;28;20166;-46
2021/05/19 08:05:30;;;;;;;8.37;7.67;;;;;;;;;;4997753;28;20660;-46
2021/05/19 08:07:56;;;;;;;7.93;7.28;;;;;;;;;;5000757;28;20181;-46
2021/05/19 08:10:21;;;;;;;8.10;7.30;;;;;;;;;;4991433;28;20336;-45
2021/05/19 08:12:47;;;;;;;8.23;7.47;;;;;;;;;;5007011;28;20203;-46
2021/05/19 08:15:12;;;;;;;8.40;7.70;;;;;;;;;;4992400;28;20201;-47
2021/05/19 08:17:37;;;;;;;8.40;7.73;;;;;;;;;;5009204;28;20656;-46
2021/05/19 08:20:03;;;;;;;8.60;7.90;;;;;;;;;;5010062;28;20212;-46
2021/05/19 08:22:28;;;;;;;9.47;8.67;;;;;;;;;;5002516;28;20173;-47
2021/05/19 08:24:53;;;;;;;9.25;8.45;;;;;;;;;;5003479;28;20173;-45
2021/05/19 08:27:18;;;;;;;9.23;8.35;;;;;;;;;;5011254;28;20179;-45
2021/05/19 08:29:44;;;;;;;9.20;8.40;;;;;;;;;;5011416;28;20176;-48
2021/05/19 08:32:09;;;;;;;9.67;8.80;;;;;;;;;;5007913;28;20721;-49
2021/05/19 08:34:35;;;;;;;10.47;9.57;;;;;;;;;;5004722;28;20251;-45
2021/05/19 08:37:00;;;;;;;10.83;10.03;;;;;;;;;;5005261;28;20192;-46
2021/05/19 08:39:25;;;;;;;10.30;9.50;;;;;;;;;;4998709;28;20253;-45
2021/05/19 08:41:50;;;;;;;11.57;10.57;;;;;;;;;;5011462;28;20171;-45
2021/05/19 08:44:16;;;;;;;11.33;10.20;;;;;;;;;;4998348;28;20203;-46
2021/05/19 08:46:46;;;;;;;12.37;11.20;;;;;;;;;;4994659;28;20550;-46
2021/05/19 08:49:11;;;;;;;11.37;10.47;;;;;;;;;;4987625;28;20645;-46
2021/05/19 08:51:37;;;;;;;10.90;9.90;;;;;;;;;;4991816;28;21306;-46
2021/05/19 08:54:04;;;;;;;12.33;11.17;;;;;;;;;;5002546;28;20181;-46
2021/05/19 08:56:29;;;;;;;12.07;11.07;;;;;;;;;;4991559;28;20180;-46
2021/05/19 08:58:55;;;;;;;14.10;12.70;;;;;;;;;;5000496;28;20727;-46
2021/05/19 09:01:20;;;;;;;12.80;11.60;;;;;;;;;;5010407;28;20563;-47
2021/05/19 09:04:00;;;;;;;10.27;9.47;;;;;;;;;;5006675;28;20268;-47
2021/05/19 09:06:26;;;;;;;9.83;9.07;;;;;;;;;;5008489;28;20171;-46
2021/05/19 09:08:51;;;;;;;8.43;7.80;;;;;;;;;;4997645;28;21191;-46
2021/05/19 09:11:16;;;;;;;11.25;10.25;;;;;;;;;;5009784;28;22007;-46
2021/05/19 09:13:45;;;;;;;8.85;8.15;;;;;;;;;;4999998;28;20181;-46
2021/05/19 09:16:12;;;;;;;10.00;9.20;;;;;;;;;;4997104;28;20203;-47
2021/05/19 09:18:48;;;;;;;10.43;9.53;;;;;;;;;;4997119;28;20661;-46
2021/05/19 09:21:31;;;;;;;11.77;10.67;;;;;;;;;;5005908;28;20626;-49
2021/05/19 09:23:57;;;;;;;11.63;10.67;;;;;;;;;;4995299;28;21192;-46
2021/05/19 09:26:22;;;;;;;11.37;10.37;;;;;;;;;;5006697;28;20630;-47
2021/05/19 09:28:47;;;;;;;11.75;10.73;;;;;;;;;;5008878;28;20639;-47
2021/05/19 09:31:19;;;;;;;9.67;8.97;;;;;;;;;;5006795;28;20192;-46
2021/05/19 09:33:44;;;;;;;10.37;9.40;;;;;;;;;;5008943;28;20162;-47
2021/05/19 09:36:21;;;;;;;9.37;8.67;;;;;;;;;;4991014;28;20662;-47
2021/05/19 09:38:49;;;;;;;7.00;6.40;;;;;;;;;;4993248;28;20197;-47
2021/05/19 09:41:20;;;;;;;6.63;6.13;;;;;;;;;;5008246;28;20679;-46
2021/05/19 09:43:46;;;;;;;9.13;8.33;;;;;;;;;;5004220;28;20597;-46
2021/05/19 09:46:17;;;;;;;8.07;7.37;;;;;;;;;;5008423;28;20654;-46
2021/05/19 09:48:43;;;;;;;8.90;8.10;;;;;;;;;;4995536;28;20611;-46
2021/05/19 09:51:08;;;;;;;6.93;6.33;;;;;;;;;;4989334;28;20997;-47
2021/05/19 09:53:34;;;;;;;5.57;5.17;;;;;;;;;;4990465;28;20196;-47
2021/05/19 09:55:59;;;;;;;6.20;5.70;;;;;;;;;;4999892;28;20185;-47
2021/05/19 09:58:28;;;;;;;6.63;6.13;;;;;;;;;;4993944;28;20180;-46
2021/05/19 10:00:54;;;;;;;6.10;5.60;;;;;;;;;;5004690;28;20217;-46
2021/05/19 10:03:19;;;;;;;6.13;5.67;;;;;;;;;;4986980;28;20565;-48
2021/05/19 10:05:49;;;;;;;6.47;5.97;;;;;;;;;;4999609;28;20640;-46
2021/05/19 10:08:15;;;;;;;5.53;5.13;;;;;;;;;;5004830;28;20178;-46
2021/05/19 10:10:40;;;;;;;6.50;6.00;;;;;;;;;;4990194;28;518546;-46
2021/05/19 10:13:08;;;;;;;5.53;5.13;;;;;;;;;;5004253;28;20239;-46
2021/05/19 10:15:35;;;;;;;5.50;5.10;;;;;;;;;;5009354;28;20181;-46
2021/05/19 10:18:14;;;;;;;5.70;5.30;;;;;;;;;;5005634;28;20675;-47
2021/05/19 10:20:41;;;;;;;6.00;5.60;;;;;;;;;;5009613;28;21265;-47
2021/05/19 10:23:08;;;;;;;5.50;5.20;;;;;;;;;;4995859;28;20602;-46
2021/05/19 10:25:36;;;;;;;5.77;5.27;;;;;;;;;;5003051;28;21207;-47
2021/05/19 10:28:02;;;;;;;5.33;5.03;;;;;;;;;;4989533;28;20585;-47
2021/05/19 10:30:46;;;;;;;6.10;5.70;;;;;;;;;;5000671;28;21078;-47
2021/05/19 10:33:27;;;;;;;7.67;7.00;;;;;;;;;;4992744;28;20602;-47
2021/05/19 10:35:52;;;;;;;10.00;9.03;;;;;;;;;;5008297;28;20616;-46
2021/05/19 10:38:26;;;;;;;9.30;8.50;;;;;;;;;;4994743;28;20621;-46
2021/05/19 10:40:53;;;;;;;7.33;6.73;;;;;;;;;;5010441;28;20193;-46
2021/05/19 10:43:18;;;;;;;5.87;5.37;;;;;;;;;;5015716;28;20656;-46
2021/05/19 10:45:47;;;;;;;5.90;5.50;;;;;;;;;;5009269;28;20577;-46
2021/05/19 10:48:28;;;;;;;5.60;5.20;;;;;;;;;;5007148;28;20185;-46
2021/05/19 10:50:59;;;;;;;6.83;6.33;;;;;;;;;;5007833;28;20682;-46
2021/05/19 10:59:10;;;;;;;6.60;6.17;;;;;;;;;;5000696;28;20628;-47
2021/05/19 11:01:43;;;;;;;8.63;7.93;;;;;;;;;;5008661;28;21136;-46
2021/05/19 11:04:18;;;;;;;7.43;6.90;;;;;;;;;;5000117;28;20179;-47
2021/05/19 11:07:01;;;;;;;7.50;7.00;;;;;;;;;;4994999;28;20623;-47
2021/05/19 11:09:27;;;;;;;5.80;5.40;;;;;;;;;;4989506;28;21151;-47
2021/05/19 11:12:13;;;;;;;6.07;5.57;;;;;;;;;;4988830;28;20661;-46
2021/05/19 11:14:51;;;;;;;5.27;4.90;;;;;;;;;;4988650;28;20610;-47
2021/05/19 11:17:52;;;;;;;5.77;5.27;;;;;;;;;;5005211;28;20618;-47
2021/05/19 11:20:18;;;;;;;6.63;6.23;;;;;;;;;;5010845;28;21457;-46
2021/05/19 11:22:45;;;;;;;7.47;6.80;;;;;;;;;;5005990;28;20639;-47
2021/05/19 11:25:14;;;;;;;5.10;4.80;;;;;;;;;;4998797;28;20264;-47
2021/05/19 11:27:39;;;;;;;3.80;3.50;;;;;;;;;;5000718;28;20597;-46
2021/05/19 11:30:05;;;;;;;3.60;3.40;;;;;;;;;;4990450;28;20605;-47
2021/05/19 11:32:31;;;;;;;3.20;3.00;;;;;;;;;;5005957;28;20202;-46
2021/05/19 11:35:16;;;;;;;2.73;2.63;;;;;;;;;;5001457;28;20610;-46
2021/05/19 11:37:55;;;;;;;3.53;3.33;;;;;;;;;;4993193;28;20613;-47
2021/05/19 11:40:20;;;;;;;3.70;3.50;;;;;;;;;;5011314;28;20743;-46
2021/05/19 11:42:55;;;;;;;3.80;3.50;;;;;;;;;;5026764;28;21063;-47
2021/05/19 11:45:25;;;;;;;3.93;3.70;;;;;;;;;;5005429;28;20185;-46
2021/05/19 11:47:50;;;;;;;3.83;3.63;;;;;;;;;;4989540;28;20626;-46
2021/05/19 11:50:18;;;;;;;3.67;3.40;;;;;;;;;;5006675;28;20621;-46
2021/05/19 11:53:02;;;;;;;3.90;3.70;;;;;;;;;;4998378;28;20172;-46
2021/05/19 11:55:33;;;;;;;3.63;3.40;;;;;;;;;;4990495;28;20600;-46
2021/05/19 11:58:05;;;;;;;3.50;3.30;;;;;;;;;;4989443;28;20930;-46
2021/05/19 12:00:31;;;;;;;4.27;3.97;;;;;;;;;;5004528;28;21034;-47
2021/05/19 12:02:56;;;;;;;4.00;3.70;;;;;;;;;;4999842;28;21172;-47
2021/05/19 12:05:23;;;;;;;3.53;3.27;;;;;;;;;;5003893;28;20713;-46
2021/05/19 12:07:49;;;;;;;4.00;3.80;;;;;;;;;;4993680;28;20335;-47
2021/05/19 12:10:14;;;;;;;3.87;3.57;;;;;;;;;;4987996;28;20592;-47
2021/05/19 12:12:40;;;;;;;3.37;3.17;;;;;;;;;;4988273;28;20662;-47
2021/05/19 12:15:06;;;;;;;3.60;3.30;;;;;;;;;;4991893;28;20324;-46
2021/05/19 12:17:31;;;;;;;3.93;3.60;;;;;;;;;;5005791;28;20623;-46
2021/05/19 12:19:56;;;;;;;5.00;2.97;;;;;;;;;;5004333;28;20215;-46
2021/05/19 12:22:22;;;;;;;3.90;3.70;;;;;;;;;;5001686;28;20194;-45
2021/05/19 12:24:48;;;;;;;3.70;3.50;;;;;;;;;;4998953;28;20173;-47
2021/05/19 12:27:17;;;;;;;5.17;4.67;;;;;;;;;;5007371;28;20177;-47
2021/05/19 12:29:46;;;;;;;4.67;4.00;;;;;;;;;;4993902;28;21096;-46
2021/05/19 12:32:11;;;;;;;4.27;3.83;;;;;;;;;;5004630;28;20607;-46
2021/05/19 12:34:37;;;;;;;5.37;4.90;;;;;;;;;;5002952;28;20621;-48
2021/05/19 12:37:02;;;;;;;4.50;4.10;;;;;;;;;;5004483;28;20187;-48
2021/05/19 12:39:28;;;;;;;4.70;4.40;;;;;;;;;;4995857;28;20200;-47
2021/05/19 12:41:56;;;;;;;5.00;4.60;;;;;;;;;;5005103;28;20203;-47
2021/05/19 12:44:26;;;;;;;10.63;5.17;;;;;;;;;;5007138;28;20584;-48
2021/05/19 12:47:07;;;;;;;6.37;5.77;;;;;;;;;;5005469;28;21156;-45
2021/05/19 12:49:33;;;;;;;6.67;6.07;;;;;;;;;;5001067;28;20661;-46
2021/05/19 12:52:00;;;;;;;7.30;6.60;;;;;;;;;;4982789;28;20988;-46
2021/05/19 12:54:29;;;;;;;6.17;5.57;;;;;;;;;;4993203;28;21239;-46
2021/05/19 12:57:08;;;;;;;6.50;6.00;;;;;;;;;;4987703;28;20604;-46
2021/05/19 12:59:53;;;;;;;6.60;6.00;;;;;;;;;;4987423;28;20632;-46
2021/05/19 13:02:18;;;;;;;6.97;6.37;;;;;;;;;;4985470;28;20577;-46
2021/05/19 13:04:47;;;;;;;6.70;6.20;;;;;;;;;;4988849;28;20979;-46
2021/05/19 13:07:20;;;;;;;7.20;6.60;;;;;;;;;;4989517;28;20183;-46
2021/05/19 13:09:48;;;;;;;7.37;6.87;;;;;;;;;;4999423;28;20610;-47
2021/05/19 13:12:21;;;;;;;7.73;7.13;;;;;;;;;;5007141;28;20671;-47
2021/05/19 13:14:49;;;;;;;7.80;7.20;;;;;;;;;;5009402;28;20602;-46
2021/05/19 13:17:24;;;;;;;8.83;8.20;;;;;;;;;;4998914;28;20625;-46
2021/05/19 13:20:00;;;;;;;9.03;8.30;;;;;;;;;;4995293;28;20806;-47
2021/05/19 13:22:26;;;;;;;8.20;7.47;;;;;;;;;;4999883;28;20867;-46
2021/05/19 13:24:53;;;;;;;7.33;6.70;;;;;;;;;;4999362;28;20602;-46
2021/05/19 13:27:25;;;;;;;6.83;6.33;;;;;;;;;;5007416;28;20609;-47
2021/05/19 13:29:50;;;;;;;6.53;5.93;;;;;;;;;;5008475;28;20681;-46
2021/05/19 13:32:21;;;;;;;4.80;4.50;;;;;;;;;;5000503;28;20710;-46
2021/05/19 13:37:30;;;;;;;5.33;4.93;;;;;;;;;;5004837;28;20609;-47
2021/05/19 13:39:57;;;;;;;6.30;5.82;;;;;;;;;;4997802;28;20650;-46
2021/05/19 13:42:22;;;;;;;5.30;5.00;;;;;;;;;;5007025;28;20190;-46
2021/05/19 13:44:48;;;;;;;4.63;4.23;;;;;;;;;;5009438;28;20585;-47
2021/05/19 13:47:13;;;;;;;5.32;4.90;;;;;;;;;;5004305;28;20187;-47
2021/05/19 13:49:39;;;;;;;4.47;4.18;;;;;;;;;;5004428;28;20194;-47
2021/05/19 13:52:05;;;;;;;4.60;4.30;;;;;;;;;;4998667;28;20193;-46
2021/05/19 13:54:32;;;;;;;4.73;4.43;;;;;;;;;;5005019;28;20595;-47
2021/05/19 13:56:58;;;;;;;5.77;5.37;;;;;;;;;;5002444;28;20597;-47
2021/05/19 13:59:23;;;;;;;4.77;4.47;;;;;;;;;;4997327;28;21389;-47
2021/05/19 14:01:49;;;;;;;6.17;5.67;;;;;;;;;;5002067;28;20505;-47
2021/05/19 14:04:15;;;;;;;4.90;4.60;;;;;;;;;;4988882;28;20227;-46
2021/05/19 14:06:40;;;;;;;5.57;5.17;;;;;;;;;;4984802;28;20181;-46
2021/05/19 14:09:06;;;;;;;5.27;4.87;;;;;;;;;;4986456;28;20607;-46
2021/05/19 14:11:40;;;;;;;5.30;4.90;;;;;;;;;;4994657;28;20221;-47
2021/05/19 14:29:32;;;;;;;4.87;4.57;;;;;;;;;;4986464;28;20567;-46
2021/05/19 14:31:58;;;;;;;4.20;4.00;;;;;;;;;;5002550;28;20606;-47
2021/05/19 14:34:24;;;;;;;5.27;4.87;;;;;;;;;;4992219;28;20554;-47
2021/05/19 14:42:43;;;;;;;4.03;3.83;;;;;;;;;;4995916;28;20206;-46
2021/05/19 14:44:11;;;;;;;4.00;3.70;;;;;;;;;;5001553;28;20590;-46
2021/05/19 14:48:59;;;;;;;4.80;4.40;;;;;;;;;;4994852;28;20618;-46
2021/05/19 15:01:49;;;;;;;4.60;4.20;;;;;;;;;;5001712;28;21457;-46
2021/05/19 15:04:15;;;;;;;4.77;4.47;;;;;;;;;;4995756;28;20612;-47
2021/05/19 15:06:40;;;;;;;5.37;4.97;;;;;;;;;;5006654;28;20175;-46
2021/05/19 15:09:09;;;;;;;5.13;4.67;;;;;;;;;;5006695;28;20171;-46
2021/05/19 15:11:34;;;;;;;4.40;4.10;;;;;;;;;;5008249;28;20231;-46
2021/05/19 15:14:00;;;;;;;4.13;3.83;;;;;;;;;;5007651;28;20965;-45
2021/05/19 15:16:25;;;;;;;4.17;3.77;;;;;;;;;;5003286;28;20260;-46
2021/05/19 15:18:50;;;;;;;4.85;4.55;;;;;;;;;;4997696;28;20210;-46
2021/05/19 15:21:16;;;;;;;5.00;4.70;;;;;;;;;;5001980;28;20683;-46
2021/05/19 15:23:41;;;;;;;4.80;4.50;;;;;;;;;;5005646;28;20905;-46